Time,TemperatureF,DewpointF,PressureIn,WindDirection,WindDirectionDegrees,WindSpeedMPH,WindSpeedGustMPH,Humidity,HourlyPrecipIn,Conditions,Clouds,dailyrainin,SoftwareType,DateUTC
2013-09-02 00:11:00,65.3,55.0,30.20,WSW,248,6.0,-999.0,70,-99.99,,,0.00,weatherlink.com 1.10,2013-09-02 06:11:00,
2013-09-02 00:26:00,65.1,55.0,30.21,West,268,6.0,-999.0,71,-99.99,,,0.00,weatherlink.com 1.10,2013-09-02 06:26:00,
2013-09-02 00:40:00,65.0,55.0,30.20,West,264,4.0,-999.0,71,-99.99,,,0.00,weatherlink.com 1.10,2013-09-02 06:40:00,
2013-09-02 00:55:00,64.7,55.0,30.20,WSW,257,4.0,-999.0,72,-99.99,,,0.00,weatherlink.com 1.10,2013-09-02 06:55:00,
2013-09-02 01:10:00,64.8,55.0,30.20,West,273,5.0,-999.0,71,-99.99,,,0.00,weatherlink.com 1.10,2013-09-02 07:10:00,
2013-09-02 01:25:00,64.7,55.0,30.20,West,261,5.0,-999.0,70,-99.99,,,0.00,weatherlink.com 1.10,2013-09-02 07:25:00,
2013-09-02 01:40:00,65.0,55.0,30.20,West,264,3.0,-999.0,69,-99.99,,,0.00,weatherlink.com 1.10,2013-09-02 07:40:00,
2013-09-02 01:55:00,65.0,54.0,30.20,West,264,4.0,-999.0,67,-99.99,,,0.00,weatherlink.com 1.10,2013-09-02 07:55:00,
2013-09-02 02:10:00,65.1,54.0,30.20,West,260,6.0,-999.0,68,-99.99,,,0.00,weatherlink.com 1.10,2013-09-02 08:10:00,
2013-09-02 02:25:00,65.2,54.0,30.19,WSW,244,4.0,-999.0,68,-99.99,,,0.00,weatherlink.com 1.10,2013-09-02 08:25:00,
2013-09-02 02:40:00,65.3,54.0,30.19,WSW,257,5.0,-999.0,67,-99.99,,,0.00,weatherlink.com 1.10,2013-09-02 08:40:00,
2013-09-02 02:55:00,65.3,54.0,30.19,West,277,6.0,-999.0,66,-99.99,,,0.00,weatherlink.com 1.10,2013-09-02 08:55:00,
2013-09-02 03:10:00,65.2,54.0,30.19,WNW,296,3.0,-999.0,68,-99.99,,,0.00,weatherlink.com 1.10,2013-09-02 09:10:00,
2013-09-02 03:25:00,64.5,54.0,30.19,SSW,198,2.0,-999.0,69,-99.99,,,0.00,weatherlink.com 1.10,2013-09-02 09:25:00,
2013-09-02 03:40:00,63.3,53.0,30.19,SSW,205,5.0,-999.0,69,-99.99,,,0.00,weatherlink.com 1.10,2013-09-02 09:40:00,
2013-09-02 03:55:00,62.1,53.0,30.19,SSW,199,2.0,-999.0,73,-99.99,,,0.00,weatherlink.com 1.10,2013-09-02 09:55:00,
2013-09-02 04:11:00,61.8,54.0,30.19,SSW,199,2.0,-999.0,76,-99.99,,,0.00,weatherlink.com 1.10,2013-09-02 10:11:00,
2013-09-02 04:25:00,61.4,54.0,30.19,WSW,238,3.0,-999.0,77,-99.99,,,0.00,weatherlink.com 1.10,2013-09-02 10:25:00,
2013-09-02 04:41:00,61.0,54.0,30.18,WSW,240,2.0,-999.0,77,-99.99,,,0.00,weatherlink.com 1.10,2013-09-02 10:41:00,
2013-09-02 04:56:00,60.7,54.0,30.19,WSW,240,2.0,-999.0,78,-99.99,,,0.00,weatherlink.com 1.10,2013-09-02 10:56:00,
2013-09-02 05:11:00,60.4,54.0,30.19,WSW,240,0.0,-999.0,78,-99.99,,,0.00,weatherlink.com 1.10,2013-09-02 11:11:00,
2013-09-02 05:26:00,60.2,54.0,30.19,SW,232,0.0,-999.0,79,-99.99,,,0.00,weatherlink.com 1.10,2013-09-02 11:26:00,
2013-09-02 05:41:00,59.6,53.0,30.19,SW,232,0.0,-999.0,80,-99.99,,,0.00,weatherlink.com 1.10,2013-09-02 11:41:00,
2013-09-02 05:56:00,59.4,53.0,30.19,SW,232,2.0,-999.0,80,-99.99,,,0.00,weatherlink.com 1.10,2013-09-02 11:56:00,
2013-09-02 06:11:00,58.9,53.0,30.19,SW,232,4.0,-999.0,80,-99.99,,,0.00,weatherlink.com 1.10,2013-09-02 12:11:00,
2013-09-02 06:26:00,58.5,52.0,30.19,WSW,242,1.0,-999.0,80,-99.99,,,0.00,weatherlink.com 1.10,2013-09-02 12:26:00,
2013-09-02 06:41:00,58.6,52.0,30.19,WSW,243,3.0,-999.0,79,-99.99,,,0.00,weatherlink.com 1.10,2013-09-02 12:41:00,
2013-09-02 06:56:00,58.2,52.0,30.20,WSW,241,0.0,-999.0,80,-99.99,,,0.00,weatherlink.com 1.10,2013-09-02 12:56:00,
2013-09-02 07:11:00,58.4,52.0,30.20,SW,233,4.0,-999.0,80,-99.99,,,0.00,weatherlink.com 1.10,2013-09-02 13:11:00,
2013-09-02 07:26:00,59.1,53.0,30.20,WSW,258,1.0,-999.0,79,-99.99,,,0.00,weatherlink.com 1.10,2013-09-02 13:26:00,
2013-09-02 07:41:00,60.5,54.0,30.20,WSW,257,3.0,-999.0,78,-99.99,,,0.00,weatherlink.com 1.10,2013-09-02 13:41:00,
2013-09-02 07:56:00,62.0,55.0,30.21,SSW,205,1.0,-999.0,77,-99.99,,,0.00,weatherlink.com 1.10,2013-09-02 13:56:00,
2013-09-02 08:10:00,63.0,55.0,30.21,South,171,1.0,-999.0,76,-99.99,,,0.00,weatherlink.com 1.10,2013-09-02 14:10:00,
2013-09-02 08:25:00,63.8,55.0,30.21,South,178,4.0,-999.0,74,-99.99,,,0.00,weatherlink.com 1.10,2013-09-02 14:25:00,
2013-09-02 08:40:00,65.1,55.0,30.22,SSE,165,2.0,-999.0,71,-99.99,,,0.00,weatherlink.com 1.10,2013-09-02 14:40:00,
2013-09-02 08:55:00,66.2,56.0,30.22,ESE,119,2.0,-999.0,70,-99.99,,,0.00,weatherlink.com 1.10,2013-09-02 14:55:00,
2013-09-02 09:10:00,67.3,57.0,30.22,SSE,151,0.0,-999.0,69,-99.99,,,0.00,weatherlink.com 1.10,2013-09-02 15:10:00,
2013-09-02 09:25:00,68.2,56.0,30.22,SSE,161,5.0,-999.0,66,-99.99,,,0.00,weatherlink.com 1.10,2013-09-02 15:25:00,
2013-09-02 09:40:00,69.1,57.0,30.21,SE,146,4.0,-999.0,65,-99.99,,,0.00,weatherlink.com 1.10,2013-09-02 15:40:00,
2013-09-02 09:55:00,70.0,57.0,30.21,SE,146,0.0,-999.0,63,-99.99,,,0.00,weatherlink.com 1.10,2013-09-02 15:55:00,
2013-09-02 10:11:00,71.1,56.0,30.21,SE,135,1.0,-999.0,60,-99.99,,,0.00,weatherlink.com 1.10,2013-09-02 16:11:00,
2013-09-02 10:26:00,72.2,57.0,30.21,South,180,1.0,-999.0,59,-99.99,,,0.00,weatherlink.com 1.10,2013-09-02 16:26:00,
2013-09-02 10:41:00,72.9,57.0,30.21,ESE,104,5.0,-999.0,57,-99.99,,,0.00,weatherlink.com 1.10,2013-09-02 16:41:00,
2013-09-02 10:56:00,73.9,57.0,30.21,SE,144,2.0,-999.0,56,-99.99,,,0.00,weatherlink.com 1.10,2013-09-02 16:56:00,
2013-09-02 11:11:00,74.2,55.0,30.21,South,171,0.0,-999.0,52,-99.99,,,0.00,weatherlink.com 1.10,2013-09-02 17:11:00,
2013-09-02 11:26:00,76.1,59.0,30.21,SW,226,1.0,-999.0,55,-99.99,,,0.00,weatherlink.com 1.10,2013-09-02 17:26:00,
2013-09-02 11:40:00,77.2,57.0,30.20,South,187,2.0,-999.0,50,-99.99,,,0.00,weatherlink.com 1.10,2013-09-02 17:40:00,
2013-09-02 11:55:00,78.2,57.0,30.20,East,90,2.0,-999.0,48,-99.99,,,0.00,weatherlink.com 1.10,2013-09-02 17:55:00,
2013-09-02 12:10:00,79.0,57.0,30.19,South,174,2.0,-999.0,47,-99.99,,,0.00,weatherlink.com 1.10,2013-09-02 18:10:00,
2013-09-02 12:25:00,80.6,58.0,30.19,SSE,155,3.0,-999.0,46,-99.99,,,0.00,weatherlink.com 1.10,2013-09-02 18:25:00,
2013-09-02 12:41:00,81.2,58.0,30.19,SSE,168,3.0,-999.0,45,-99.99,,,0.00,weatherlink.com 1.10,2013-09-02 18:41:00,
2013-09-02 12:56:00,82.5,56.0,30.18,SE,144,4.0,-999.0,40,-99.99,,,0.00,weatherlink.com 1.10,2013-09-02 18:56:00,
2013-09-02 13:11:00,83.5,56.0,30.18,SSE,157,4.0,-999.0,39,-99.99,,,0.00,weatherlink.com 1.10,2013-09-02 19:11:00,
2013-09-02 13:26:00,84.5,54.0,30.18,SSE,157,2.0,-999.0,35,-99.99,,,0.00,weatherlink.com 1.10,2013-09-02 19:26:00,
2013-09-02 13:41:00,84.8,53.0,30.18,East,101,4.0,-999.0,34,-99.99,,,0.00,weatherlink.com 1.10,2013-09-02 19:41:00,
2013-09-02 13:56:00,86.9,56.0,30.17,SE,146,3.0,-999.0,35,-99.99,,,0.00,weatherlink.com 1.10,2013-09-02 19:56:00,
2013-09-02 14:11:00,86.9,55.0,30.17,SE,128,1.0,-999.0,33,-99.99,,,0.00,weatherlink.com 1.10,2013-09-02 20:11:00,
2013-09-02 14:26:00,85.6,55.0,30.17,South,172,4.0,-999.0,35,-99.99,,,0.00,weatherlink.com 1.10,2013-09-02 20:26:00,
2013-09-02 14:41:00,84.4,58.0,30.16,South,187,5.0,-999.0,41,-99.99,,,0.00,weatherlink.com 1.10,2013-09-02 20:41:00,
2013-09-02 14:56:00,86.2,58.0,30.16,South,179,3.0,-999.0,39,-99.99,,,0.00,weatherlink.com 1.10,2013-09-02 20:56:00,
2013-09-02 15:11:00,85.8,57.0,30.15,SE,125,2.0,-999.0,37,-99.99,,,0.00,weatherlink.com 1.10,2013-09-02 21:11:00,
2013-09-02 15:26:00,85.3,56.0,30.15,SSE,165,3.0,-999.0,37,-99.99,,,0.00,weatherlink.com 1.10,2013-09-02 21:26:00,
2013-09-02 15:40:00,84.9,54.0,30.15,South,187,4.0,-999.0,35,-99.99,,,0.00,weatherlink.com 1.10,2013-09-02 21:40:00,
2013-09-02 15:55:00,84.2,54.0,30.15,SSE,161,1.0,-999.0,36,-99.99,,,0.00,weatherlink.com 1.10,2013-09-02 21:55:00,
2013-09-02 16:10:00,83.8,54.0,30.14,SE,130,2.0,-999.0,36,-99.99,,,0.00,weatherlink.com 1.10,2013-09-02 22:10:00,
2013-09-02 16:25:00,84.1,55.0,30.13,SSE,160,3.0,-999.0,37,-99.99,,,0.00,weatherlink.com 1.10,2013-09-02 22:25:00,
2013-09-02 16:40:00,84.9,54.0,30.14,South,180,5.0,-999.0,35,-99.99,,,0.00,weatherlink.com 1.10,2013-09-02 22:40:00,
2013-09-02 16:55:00,86.1,53.0,30.13,SSW,196,4.0,-999.0,32,-99.99,,,0.00,weatherlink.com 1.10,2013-09-02 22:55:00,
2013-09-02 17:11:00,86.7,52.0,30.12,SE,133,1.0,-999.0,30,-99.99,,,0.00,weatherlink.com 1.10,2013-09-02 23:11:00,
2013-09-02 17:26:00,87.5,50.0,30.12,SSE,165,4.0,-999.0,27,-99.99,,,0.00,weatherlink.com 1.10,2013-09-02 23:26:00,
2013-09-02 17:41:00,87.4,50.0,30.12,SSE,159,2.0,-999.0,27,-99.99,,,0.00,weatherlink.com 1.10,2013-09-02 23:41:00,
2013-09-02 17:56:00,87.6,49.0,30.12,SE,134,2.0,-999.0,26,-99.99,,,0.00,weatherlink.com 1.10,2013-09-02 23:56:00,
2013-09-02 18:11:00,87.3,46.0,30.12,SE,130,4.0,-999.0,24,-99.99,,,0.00,weatherlink.com 1.10,2013-09-03 00:11:00,
2013-09-02 18:26:00,85.6,50.0,30.12,SE,140,0.0,-999.0,29,-99.99,,,0.00,weatherlink.com 1.10,2013-09-03 00:26:00,
2013-09-02 18:41:00,84.7,53.0,30.12,SE,140,0.0,-999.0,34,-99.99,,,0.00,weatherlink.com 1.10,2013-09-03 00:41:00,
2013-09-02 18:56:00,82.9,53.0,30.12,SE,140,1.0,-999.0,35,-99.99,,,0.00,weatherlink.com 1.10,2013-09-03 00:56:00,
2013-09-02 19:10:00,79.6,49.0,30.12,West,277,2.0,-999.0,34,-99.99,,,0.00,weatherlink.com 1.10,2013-09-03 01:10:00,
2013-09-02 19:25:00,78.8,48.0,30.12,WNW,290,5.0,-999.0,34,-99.99,,,0.00,weatherlink.com 1.10,2013-09-03 01:25:00,
2013-09-02 19:40:00,78.1,47.0,30.12,West,275,4.0,-999.0,34,-99.99,,,0.00,weatherlink.com 1.10,2013-09-03 01:40:00,
2013-09-02 19:55:00,77.8,46.0,30.12,West,273,4.0,-999.0,33,-99.99,,,0.00,weatherlink.com 1.10,2013-09-03 01:55:00,
2013-09-02 20:11:00,77.6,46.0,30.12,West,265,3.0,-999.0,33,-99.99,,,0.00,weatherlink.com 1.10,2013-09-03 02:11:00,
2013-09-02 20:25:00,76.6,46.0,30.12,WSW,257,5.0,-999.0,34,-99.99,,,0.00,weatherlink.com 1.10,2013-09-03 02:25:00,
2013-09-02 20:41:00,76.7,46.0,30.12,WSW,250,9.0,-999.0,34,-99.99,,,0.00,weatherlink.com 1.10,2013-09-03 02:41:00,
2013-09-02 20:56:00,76.7,47.0,30.12,West,269,5.0,-999.0,35,-99.99,,,0.00,weatherlink.com 1.10,2013-09-03 02:56:00,
2013-09-02 21:11:00,76.1,47.0,30.12,South,178,3.0,-999.0,36,-99.99,,,0.00,weatherlink.com 1.10,2013-09-03 03:11:00,
2013-09-02 21:26:00,74.6,47.0,30.12,West,269,6.0,-999.0,38,-99.99,,,0.00,weatherlink.com 1.10,2013-09-03 03:26:00,
2013-09-02 21:41:00,74.2,46.0,30.13,West,269,4.0,-999.0,37,-99.99,,,0.00,weatherlink.com 1.10,2013-09-03 03:41:00,
2013-09-02 21:56:00,75.0,48.0,30.13,WNW,299,0.0,-999.0,38,-99.99,,,0.00,weatherlink.com 1.10,2013-09-03 03:56:00,
2013-09-02 22:11:00,74.5,49.0,30.13,WNW,292,5.0,-999.0,40,-99.99,,,0.00,weatherlink.com 1.10,2013-09-03 04:11:00,
2013-09-02 22:26:00,74.3,48.0,30.13,West,281,3.0,-999.0,40,-99.99,,,0.00,weatherlink.com 1.10,2013-09-03 04:26:00,
2013-09-02 22:41:00,74.6,49.0,30.13,West,268,9.0,-999.0,40,-99.99,,,0.00,weatherlink.com 1.10,2013-09-03 04:41:00,
2013-09-02 22:56:00,74.3,48.0,30.13,WSW,242,5.0,-999.0,40,-99.99,,,0.00,weatherlink.com 1.10,2013-09-03 04:56:00,
2013-09-02 23:11:00,73.9,48.0,30.14,West,259,8.0,-999.0,40,-99.99,,,0.00,weatherlink.com 1.10,2013-09-03 05:11:00,
2013-09-02 23:26:00,74.1,48.0,30.14,West,270,3.0,-999.0,39,-99.99,,,0.00,weatherlink.com 1.10,2013-09-03 05:26:00,
2013-09-02 23:41:00,73.1,47.0,30.14,WSW,238,3.0,-999.0,40,-99.99,,,0.00,weatherlink.com 1.10,2013-09-03 05:41:00,
2013-09-02 23:56:00,71.6,47.0,30.14,SW,234,6.0,-999.0,41,-99.99,,,0.00,weatherlink.com 1.10,2013-09-03 05:56:00,